sensor_id;sensor_type;location;lat;lon;timestamp;P1;durP1;ratioP1;P2;durP2;ratioP2
19587;SDS011;9940;47.252;8.696;2023-03-16T00:00:52;0.80;;;0.60;;
19587;SDS011;9940;47.252;8.696;2023-03-16T00:03:18;0.80;;;0.40;;
19587;SDS011;9940;47.252;8.696;2023-03-16T00:05:47;0.95;;;0.70;;
19587;SDS011;9940;47.252;8.696;2023-03-16T00:10:45;1.38;;;0.60;;
19587;SDS011;9940;47.252;8.696;2023-03-16T00:13:12;1.05;;;0.52;;
19587;SDS011;9940;47.252;8.696;2023-03-16T00:15:39;1.10;;;0.55;;
19587;SDS011;9940;47.252;8.696;2023-03-16T00:18:05;0.60;;;0.50;;
19587;SDS011;9940;47.252;8.696;2023-03-16T00:20:30;0.82;;;0.50;;
19587;SDS011;9940;47.252;8.696;2023-03-16T00:22:58;1.05;;;0.60;;
19587;SDS011;9940;47.252;8.696;2023-03-16T00:25:26;0.88;;;0.63;;
19587;SDS011;9940;47.252;8.696;2023-03-16T00:27:52;1.42;;;0.82;;
19587;SDS011;9940;47.252;8.696;2023-03-16T00:30:20;2.53;;;0.70;;
19587;SDS011;9940;47.252;8.696;2023-03-16T00:32:46;1.38;;;0.60;;
19587;SDS011;9940;47.252;8.696;2023-03-16T00:35:12;1.83;;;0.60;;
19587;SDS011;9940;47.252;8.696;2023-03-16T00:37:40;2.60;;;0.63;;
19587;SDS011;9940;47.252;8.696;2023-03-16T00:40:08;2.58;;;0.93;;
19587;SDS011;9940;47.252;8.696;2023-03-16T00:42:38;3.28;;;0.68;;
19587;SDS011;9940;47.252;8.696;2023-03-16T00:45:07;1.10;;;0.70;;
19587;SDS011;9940;47.252;8.696;2023-03-16T00:47:33;1.48;;;0.60;;
19587;SDS011;9940;47.252;8.696;2023-03-16T00:50:04;3.13;;;0.73;;
19587;SDS011;9940;47.252;8.696;2023-03-16T00:52:30;1.27;;;0.68;;
19587;SDS011;9940;47.252;8.696;2023-03-16T00:54:56;0.90;;;0.70;;
19587;SDS011;9940;47.252;8.696;2023-03-16T00:57:24;3.83;;;0.77;;
19587;SDS011;9940;47.252;8.696;2023-03-16T00:59:51;1.40;;;0.60;;
19587;SDS011;9940;47.252;8.696;2023-03-16T01:02:19;3.65;;;0.90;;
19587;SDS011;9940;47.252;8.696;2023-03-16T01:04:48;1.05;;;0.68;;
19587;SDS011;9940;47.252;8.696;2023-03-16T01:07:15;0.65;;;0.60;;
19587;SDS011;9940;47.252;8.696;2023-03-16T01:09:45;2.55;;;0.90;;
19587;SDS011;9940;47.252;8.696;2023-03-16T01:12:15;2.03;;;0.90;;
19587;SDS011;9940;47.252;8.696;2023-03-16T01:14:42;1.33;;;0.90;;
19587;SDS011;9940;47.252;8.696;2023-03-16T01:17:10;0.90;;;0.80;;
19587;SDS011;9940;47.252;8.696;2023-03-16T01:19:37;0.75;;;0.70;;
19587;SDS011;9940;47.252;8.696;2023-03-16T01:22:07;0.73;;;0.50;;
19587;SDS011;9940;47.252;8.696;2023-03-16T01:24:36;1.52;;;0.70;;
19587;SDS011;9940;47.252;8.696;2023-03-16T01:27:03;0.80;;;0.63;;
19587;SDS011;9940;47.252;8.696;2023-03-16T01:29:35;1.70;;;0.82;;
19587;SDS011;9940;47.252;8.696;2023-03-16T01:32:07;0.90;;;0.57;;
19587;SDS011;9940;47.252;8.696;2023-03-16T01:34:35;1.30;;;0.60;;
19587;SDS011;9940;47.252;8.696;2023-03-16T01:37:00;0.68;;;0.57;;
19587;SDS011;9940;47.252;8.696;2023-03-16T01:39:29;1.00;;;0.60;;
19587;SDS011;9940;47.252;8.696;2023-03-16T01:41:54;0.80;;;0.50;;
19587;SDS011;9940;47.252;8.696;2023-03-16T01:44:23;0.95;;;0.50;;
19587;SDS011;9940;47.252;8.696;2023-03-16T01:46:56;1.10;;;0.68;;
19587;SDS011;9940;47.252;8.696;2023-03-16T01:49:31;2.38;;;0.90;;
19587;SDS011;9940;47.252;8.696;2023-03-16T01:52:03;2.80;;;0.70;;
19587;SDS011;9940;47.252;8.696;2023-03-16T01:54:45;2.22;;;0.80;;
19587;SDS011;9940;47.252;8.696;2023-03-16T01:57:16;6.15;;;0.80;;
19587;SDS011;9940;47.252;8.696;2023-03-16T02:02:34;0.77;;;0.43;;
19587;SDS011;9940;47.252;8.696;2023-03-16T02:05:13;1.02;;;0.60;;
19587;SDS011;9940;47.252;8.696;2023-03-16T02:07:44;2.42;;;0.73;;
19587;SDS011;9940;47.252;8.696;2023-03-16T02:10:12;1.67;;;0.68;;
19587;SDS011;9940;47.252;8.696;2023-03-16T02:12:40;0.60;;;0.40;;
19587;SDS011;9940;47.252;8.696;2023-03-16T02:15:10;0.90;;;0.52;;
19587;SDS011;9940;47.252;8.696;2023-03-16T02:17:40;1.27;;;0.60;;
19587;SDS011;9940;47.252;8.696;2023-03-16T02:22:36;0.75;;;0.50;;
19587;SDS011;9940;47.252;8.696;2023-03-16T02:25:09;0.65;;;0.60;;
19587;SDS011;9940;47.252;8.696;2023-03-16T02:27:41;0.93;;;0.50;;
19587;SDS011;9940;47.252;8.696;2023-03-16T02:30:21;1.58;;;0.50;;
19587;SDS011;9940;47.252;8.696;2023-03-16T02:32:47;0.68;;;0.38;;
19587;SDS011;9940;47.252;8.696;2023-03-16T02:35:16;0.68;;;0.50;;
19587;SDS011;9940;47.252;8.696;2023-03-16T02:37:42;1.42;;;0.47;;
19587;SDS011;9940;47.252;8.696;2023-03-16T02:42:53;1.30;;;0.52;;
19587;SDS011;9940;47.252;8.696;2023-03-16T02:45:30;1.08;;;0.47;;
19587;SDS011;9940;47.252;8.696;2023-03-16T02:48:30;1.67;;;0.70;;
19587;SDS011;9940;47.252;8.696;2023-03-16T02:51:02;1.60;;;0.50;;
19587;SDS011;9940;47.252;8.696;2023-03-16T02:53:28;0.60;;;0.40;;
19587;SDS011;9940;47.252;8.696;2023-03-16T02:55:53;1.40;;;0.50;;
19587;SDS011;9940;47.252;8.696;2023-03-16T02:58:19;0.80;;;0.50;;
19587;SDS011;9940;47.252;8.696;2023-03-16T03:00:45;1.13;;;0.50;;
19587;SDS011;9940;47.252;8.696;2023-03-16T03:03:11;0.60;;;0.40;;
19587;SDS011;9940;47.252;8.696;2023-03-16T03:05:38;1.38;;;0.57;;
19587;SDS011;9940;47.252;8.696;2023-03-16T03:08:06;0.95;;;0.40;;
19587;SDS011;9940;47.252;8.696;2023-03-16T03:10:32;2.72;;;0.57;;
19587;SDS011;9940;47.252;8.696;2023-03-16T03:13:00;2.05;;;0.68;;
19587;SDS011;9940;47.252;8.696;2023-03-16T03:15:33;1.13;;;0.68;;
19587;SDS011;9940;47.252;8.696;2023-03-16T03:18:00;1.38;;;0.40;;
19587;SDS011;9940;47.252;8.696;2023-03-16T03:20:26;1.25;;;0.50;;
19587;SDS011;9940;47.252;8.696;2023-03-16T03:22:54;0.93;;;0.40;;
19587;SDS011;9940;47.252;8.696;2023-03-16T03:25:20;2.45;;;0.70;;
19587;SDS011;9940;47.252;8.696;2023-03-16T03:27:47;0.85;;;0.60;;
19587;SDS011;9940;47.252;8.696;2023-03-16T03:30:15;2.05;;;0.60;;
19587;SDS011;9940;47.252;8.696;2023-03-16T03:32:44;0.52;;;0.40;;
19587;SDS011;9940;47.252;8.696;2023-03-16T03:35:10;0.50;;;0.40;;
19587;SDS011;9940;47.252;8.696;2023-03-16T03:37:40;1.77;;;0.55;;
19587;SDS011;9940;47.252;8.696;2023-03-16T03:40:07;2.80;;;0.50;;
19587;SDS011;9940;47.252;8.696;2023-03-16T03:42:37;0.82;;;0.60;;
19587;SDS011;9940;47.252;8.696;2023-03-16T03:45:06;1.42;;;0.70;;
19587;SDS011;9940;47.252;8.696;2023-03-16T03:47:41;0.90;;;0.60;;
19587;SDS011;9940;47.252;8.696;2023-03-16T03:50:10;1.50;;;0.60;;
19587;SDS011;9940;47.252;8.696;2023-03-16T03:52:37;1.17;;;0.60;;
19587;SDS011;9940;47.252;8.696;2023-03-16T03:55:06;0.93;;;0.52;;
19587;SDS011;9940;47.252;8.696;2023-03-16T03:57:34;2.35;;;0.80;;
19587;SDS011;9940;47.252;8.696;2023-03-16T04:00:00;1.88;;;0.65;;
19587;SDS011;9940;47.252;8.696;2023-03-16T04:02:26;2.63;;;0.68;;
19587;SDS011;9940;47.252;8.696;2023-03-16T04:04:51;0.63;;;0.60;;
19587;SDS011;9940;47.252;8.696;2023-03-16T04:07:17;0.80;;;0.55;;
19587;SDS011;9940;47.252;8.696;2023-03-16T04:09:43;1.15;;;0.57;;
19587;SDS011;9940;47.252;8.696;2023-03-16T04:12:09;0.85;;;0.60;;
19587;SDS011;9940;47.252;8.696;2023-03-16T04:14:35;0.80;;;0.55;;
19587;SDS011;9940;47.252;8.696;2023-03-16T04:17:03;1.13;;;0.47;;
19587;SDS011;9940;47.252;8.696;2023-03-16T04:19:29;1.23;;;0.60;;
19587;SDS011;9940;47.252;8.696;2023-03-16T04:21:54;3.30;;;0.85;;
19587;SDS011;9940;47.252;8.696;2023-03-16T04:24:20;2.70;;;0.85;;
19587;SDS011;9940;47.252;8.696;2023-03-16T04:26:46;1.48;;;0.85;;
19587;SDS011;9940;47.252;8.696;2023-03-16T04:29:13;1.98;;;0.93;;
19587;SDS011;9940;47.252;8.696;2023-03-16T04:31:44;2.95;;;0.98;;
19587;SDS011;9940;47.252;8.696;2023-03-16T04:34:13;3.50;;;0.60;;
19587;SDS011;9940;47.252;8.696;2023-03-16T04:36:41;0.65;;;0.40;;
19587;SDS011;9940;47.252;8.696;2023-03-16T04:39:09;3.95;;;0.73;;
19587;SDS011;9940;47.252;8.696;2023-03-16T04:41:37;1.05;;;0.60;;
19587;SDS011;9940;47.252;8.696;2023-03-16T04:44:03;1.70;;;0.70;;
19587;SDS011;9940;47.252;8.696;2023-03-16T04:46:31;1.30;;;0.73;;
19587;SDS011;9940;47.252;8.696;2023-03-16T04:48:59;0.90;;;0.70;;
19587;SDS011;9940;47.252;8.696;2023-03-16T04:51:25;1.23;;;0.43;;
19587;SDS011;9940;47.252;8.696;2023-03-16T04:53:52;0.88;;;0.65;;
19587;SDS011;9940;47.252;8.696;2023-03-16T04:56:18;1.33;;;0.50;;
19587;SDS011;9940;47.252;8.696;2023-03-16T04:58:45;2.95;;;0.70;;
19587;SDS011;9940;47.252;8.696;2023-03-16T05:01:11;0.52;;;0.40;;
19587;SDS011;9940;47.252;8.696;2023-03-16T05:03:40;0.70;;;0.50;;
19587;SDS011;9940;47.252;8.696;2023-03-16T05:06:08;0.65;;;0.47;;
19587;SDS011;9940;47.252;8.696;2023-03-16T05:08:36;1.05;;;0.47;;
19587;SDS011;9940;47.252;8.696;2023-03-16T05:11:04;0.95;;;0.50;;
19587;SDS011;9940;47.252;8.696;2023-03-16T05:13:30;0.40;;;0.40;;
19587;SDS011;9940;47.252;8.696;2023-03-16T05:15:55;1.65;;;0.70;;
19587;SDS011;9940;47.252;8.696;2023-03-16T05:18:21;2.53;;;1.50;;
19587;SDS011;9940;47.252;8.696;2023-03-16T05:20:53;2.10;;;1.20;;
19587;SDS011;9940;47.252;8.696;2023-03-16T05:23:20;2.42;;;0.80;;
19587;SDS011;9940;47.252;8.696;2023-03-16T05:25:47;1.98;;;0.65;;
19587;SDS011;9940;47.252;8.696;2023-03-16T05:28:13;2.03;;;1.00;;
19587;SDS011;9940;47.252;8.696;2023-03-16T05:30:39;4.07;;;1.15;;
19587;SDS011;9940;47.252;8.696;2023-03-16T05:33:06;2.03;;;1.15;;
19587;SDS011;9940;47.252;8.696;2023-03-16T05:35:32;2.28;;;1.10;;
19587;SDS011;9940;47.252;8.696;2023-03-16T05:37:58;1.98;;;1.30;;
19587;SDS011;9940;47.252;8.696;2023-03-16T05:40:23;3.72;;;1.23;;
19587;SDS011;9940;47.252;8.696;2023-03-16T05:42:52;3.20;;;1.50;;
19587;SDS011;9940;47.252;8.696;2023-03-16T05:45:19;2.50;;;1.52;;
19587;SDS011;9940;47.252;8.696;2023-03-16T05:47:45;1.85;;;0.93;;
19587;SDS011;9940;47.252;8.696;2023-03-16T05:50:11;3.25;;;1.00;;
19587;SDS011;9940;47.252;8.696;2023-03-16T05:52:38;3.75;;;1.10;;
19587;SDS011;9940;47.252;8.696;2023-03-16T05:55:05;1.50;;;1.00;;
19587;SDS011;9940;47.252;8.696;2023-03-16T05:57:32;2.20;;;1.17;;
19587;SDS011;9940;47.252;8.696;2023-03-16T05:59:59;2.40;;;1.00;;
19587;SDS011;9940;47.252;8.696;2023-03-16T06:02:26;4.90;;;1.00;;
19587;SDS011;9940;47.252;8.696;2023-03-16T06:04:52;2.33;;;1.00;;
19587;SDS011;9940;47.252;8.696;2023-03-16T06:07:20;2.05;;;0.98;;
19587;SDS011;9940;47.252;8.696;2023-03-16T06:09:48;3.45;;;0.80;;
19587;SDS011;9940;47.252;8.696;2023-03-16T06:12:13;1.73;;;0.90;;
19587;SDS011;9940;47.252;8.696;2023-03-16T06:14:39;4.28;;;0.88;;
19587;SDS011;9940;47.252;8.696;2023-03-16T06:17:07;1.67;;;0.85;;
19587;SDS011;9940;47.252;8.696;2023-03-16T06:19:32;5.70;;;1.10;;
19587;SDS011;9940;47.252;8.696;2023-03-16T06:22:03;2.83;;;1.17;;
19587;SDS011;9940;47.252;8.696;2023-03-16T06:24:32;2.30;;;1.05;;
19587;SDS011;9940;47.252;8.696;2023-03-16T06:26:58;2.95;;;1.10;;
19587;SDS011;9940;47.252;8.696;2023-03-16T06:29:23;3.63;;;1.38;;
19587;SDS011;9940;47.252;8.696;2023-03-16T06:31:49;1.83;;;1.02;;
19587;SDS011;9940;47.252;8.696;2023-03-16T06:34:18;2.08;;;0.93;;
19587;SDS011;9940;47.252;8.696;2023-03-16T06:36:44;2.25;;;0.90;;
19587;SDS011;9940;47.252;8.696;2023-03-16T06:39:10;2.08;;;1.20;;
19587;SDS011;9940;47.252;8.696;2023-03-16T06:41:35;2.10;;;0.85;;
19587;SDS011;9940;47.252;8.696;2023-03-16T06:44:02;1.63;;;1.00;;
19587;SDS011;9940;47.252;8.696;2023-03-16T06:46:30;2.72;;;1.10;;
19587;SDS011;9940;47.252;8.696;2023-03-16T06:48:58;1.65;;;1.05;;
19587;SDS011;9940;47.252;8.696;2023-03-16T06:51:25;1.67;;;1.00;;
19587;SDS011;9940;47.252;8.696;2023-03-16T06:53:51;3.60;;;0.80;;
19587;SDS011;9940;47.252;8.696;2023-03-16T06:56:16;2.17;;;0.93;;
19587;SDS011;9940;47.252;8.696;2023-03-16T06:58:42;1.33;;;0.70;;
19587;SDS011;9940;47.252;8.696;2023-03-16T07:01:08;1.80;;;0.82;;
19587;SDS011;9940;47.252;8.696;2023-03-16T07:03:36;2.15;;;0.68;;
19587;SDS011;9940;47.252;8.696;2023-03-16T07:06:05;2.53;;;0.80;;
19587;SDS011;9940;47.252;8.696;2023-03-16T07:08:32;2.30;;;0.90;;
19587;SDS011;9940;47.252;8.696;2023-03-16T07:10:58;2.20;;;1.00;;
19587;SDS011;9940;47.252;8.696;2023-03-16T07:13:24;2.22;;;0.88;;
19587;SDS011;9940;47.252;8.696;2023-03-16T07:15:50;1.27;;;0.73;;
19587;SDS011;9940;47.252;8.696;2023-03-16T07:18:16;3.17;;;0.70;;
19587;SDS011;9940;47.252;8.696;2023-03-16T07:20:44;1.58;;;0.80;;
19587;SDS011;9940;47.252;8.696;2023-03-16T07:23:10;2.63;;;1.10;;
19587;SDS011;9940;47.252;8.696;2023-03-16T07:25:37;1.30;;;1.00;;
19587;SDS011;9940;47.252;8.696;2023-03-16T07:28:05;2.00;;;0.98;;
19587;SDS011;9940;47.252;8.696;2023-03-16T07:30:30;2.40;;;1.08;;
19587;SDS011;9940;47.252;8.696;2023-03-16T07:32:56;1.63;;;1.05;;
19587;SDS011;9940;47.252;8.696;2023-03-16T07:35:22;1.10;;;0.70;;
19587;SDS011;9940;47.252;8.696;2023-03-16T07:37:50;1.52;;;1.10;;
19587;SDS011;9940;47.252;8.696;2023-03-16T07:40:16;1.30;;;0.73;;
19587;SDS011;9940;47.252;8.696;2023-03-16T07:42:42;1.35;;;0.80;;
19587;SDS011;9940;47.252;8.696;2023-03-16T07:45:12;2.45;;;1.00;;
19587;SDS011;9940;47.252;8.696;2023-03-16T07:47:44;1.67;;;0.85;;
19587;SDS011;9940;47.252;8.696;2023-03-16T07:50:10;1.10;;;0.75;;
19587;SDS011;9940;47.252;8.696;2023-03-16T07:52:40;2.83;;;1.20;;
19587;SDS011;9940;47.252;8.696;2023-03-16T07:55:06;1.42;;;0.90;;
19587;SDS011;9940;47.252;8.696;2023-03-16T07:57:35;2.22;;;1.00;;
19587;SDS011;9940;47.252;8.696;2023-03-16T08:00:00;2.80;;;1.08;;
19587;SDS011;9940;47.252;8.696;2023-03-16T08:02:29;1.30;;;0.90;;
19587;SDS011;9940;47.252;8.696;2023-03-16T08:04:55;3.15;;;1.15;;
19587;SDS011;9940;47.252;8.696;2023-03-16T08:07:21;2.35;;;1.17;;
19587;SDS011;9940;47.252;8.696;2023-03-16T08:09:46;1.40;;;0.90;;
19587;SDS011;9940;47.252;8.696;2023-03-16T08:12:12;1.02;;;0.93;;
19587;SDS011;9940;47.252;8.696;2023-03-16T08:14:38;1.17;;;0.80;;
19587;SDS011;9940;47.252;8.696;2023-03-16T08:17:04;3.05;;;0.75;;
19587;SDS011;9940;47.252;8.696;2023-03-16T08:19:31;1.23;;;0.90;;
19587;SDS011;9940;47.252;8.696;2023-03-16T08:21:57;1.52;;;0.88;;
19587;SDS011;9940;47.252;8.696;2023-03-16T08:24:26;2.50;;;1.02;;
19587;SDS011;9940;47.252;8.696;2023-03-16T08:26:53;1.52;;;0.75;;
19587;SDS011;9940;47.252;8.696;2023-03-16T08:29:22;2.08;;;0.60;;
19587;SDS011;9940;47.252;8.696;2023-03-16T08:31:51;1.85;;;0.70;;
19587;SDS011;9940;47.252;8.696;2023-03-16T08:34:22;1.30;;;0.60;;
19587;SDS011;9940;47.252;8.696;2023-03-16T08:36:48;0.82;;;0.60;;
19587;SDS011;9940;47.252;8.696;2023-03-16T08:39:14;0.90;;;0.60;;
19587;SDS011;9940;47.252;8.696;2023-03-16T08:41:40;0.73;;;0.70;;
19587;SDS011;9940;47.252;8.696;2023-03-16T08:44:09;1.50;;;0.80;;
19587;SDS011;9940;47.252;8.696;2023-03-16T08:46:36;0.95;;;0.65;;
19587;SDS011;9940;47.252;8.696;2023-03-16T08:49:03;1.65;;;0.43;;
19587;SDS011;9940;47.252;8.696;2023-03-16T08:51:29;1.40;;;0.70;;
19587;SDS011;9940;47.252;8.696;2023-03-16T08:53:57;1.30;;;0.75;;
19587;SDS011;9940;47.252;8.696;2023-03-16T08:56:25;2.45;;;0.60;;
19587;SDS011;9940;47.252;8.696;2023-03-16T08:58:51;1.38;;;0.82;;
19587;SDS011;9940;47.252;8.696;2023-03-16T09:01:17;0.93;;;0.60;;
19587;SDS011;9940;47.252;8.696;2023-03-16T09:03:43;1.45;;;0.80;;
19587;SDS011;9940;47.252;8.696;2023-03-16T09:06:14;1.98;;;1.20;;
19587;SDS011;9940;47.252;8.696;2023-03-16T09:08:41;3.13;;;0.80;;
19587;SDS011;9940;47.252;8.696;2023-03-16T09:11:10;0.95;;;0.70;;
19587;SDS011;9940;47.252;8.696;2023-03-16T09:13:38;0.88;;;0.70;;
19587;SDS011;9940;47.252;8.696;2023-03-16T09:16:09;0.70;;;0.65;;
19587;SDS011;9940;47.252;8.696;2023-03-16T09:18:38;4.05;;;0.93;;
19587;SDS011;9940;47.252;8.696;2023-03-16T09:21:07;3.03;;;0.82;;
19587;SDS011;9940;47.252;8.696;2023-03-16T09:23:38;1.08;;;0.80;;
19587;SDS011;9940;47.252;8.696;2023-03-16T09:26:05;1.70;;;0.90;;
19587;SDS011;9940;47.252;8.696;2023-03-16T09:28:32;1.45;;;0.90;;
19587;SDS011;9940;47.252;8.696;2023-03-16T09:31:00;0.90;;;0.75;;
19587;SDS011;9940;47.252;8.696;2023-03-16T09:33:27;1.58;;;0.90;;
19587;SDS011;9940;47.252;8.696;2023-03-16T09:35:54;1.73;;;0.82;;
19587;SDS011;9940;47.252;8.696;2023-03-16T09:38:21;2.70;;;0.90;;
19587;SDS011;9940;47.252;8.696;2023-03-16T09:40:54;0.80;;;0.70;;
19587;SDS011;9940;47.252;8.696;2023-03-16T09:43:41;1.23;;;0.90;;
19587;SDS011;9940;47.252;8.696;2023-03-16T09:46:22;1.30;;;0.88;;
19587;SDS011;9940;47.252;8.696;2023-03-16T09:48:57;2.60;;;0.90;;
19587;SDS011;9940;47.252;8.696;2023-03-16T09:53:54;4.05;;;0.98;;
19587;SDS011;9940;47.252;8.696;2023-03-16T09:56:29;5.97;;;0.93;;
19587;SDS011;9940;47.252;8.696;2023-03-16T09:59:13;1.00;;;0.75;;
19587;SDS011;9940;47.252;8.696;2023-03-16T10:01:48;1.85;;;0.88;;
19587;SDS011;9940;47.252;8.696;2023-03-16T10:07:35;2.85;;;1.20;;
19587;SDS011;9940;47.252;8.696;2023-03-16T10:15:51;2.05;;;1.00;;
19587;SDS011;9940;47.252;8.696;2023-03-16T10:18:22;2.72;;;0.88;;
19587;SDS011;9940;47.252;8.696;2023-03-16T10:20:52;2.47;;;1.00;;
19587;SDS011;9940;47.252;8.696;2023-03-16T10:23:20;1.10;;;0.80;;
19587;SDS011;9940;47.252;8.696;2023-03-16T10:25:59;2.15;;;0.70;;
19587;SDS011;9940;47.252;8.696;2023-03-16T10:28:29;1.27;;;0.70;;
19587;SDS011;9940;47.252;8.696;2023-03-16T10:30:57;1.10;;;0.60;;
19587;SDS011;9940;47.252;8.696;2023-03-16T10:33:25;0.57;;;0.55;;
19587;SDS011;9940;47.252;8.696;2023-03-16T10:35:59;1.27;;;0.80;;
19587;SDS011;9940;47.252;8.696;2023-03-16T10:44:12;2.53;;;0.98;;
19587;SDS011;9940;47.252;8.696;2023-03-16T10:49:04;0.93;;;0.90;;
19587;SDS011;9940;47.252;8.696;2023-03-16T10:51:52;1.45;;;1.35;;
19587;SDS011;9940;47.252;8.696;2023-03-16T10:54:28;1.35;;;1.25;;
19587;SDS011;9940;47.252;8.696;2023-03-16T10:56:58;1.83;;;1.40;;
19587;SDS011;9940;47.252;8.696;2023-03-16T10:59:31;1.90;;;1.70;;
19587;SDS011;9940;47.252;8.696;2023-03-16T11:01:59;2.13;;;1.87;;
19587;SDS011;9940;47.252;8.696;2023-03-16T11:04:29;2.92;;;2.60;;
19587;SDS011;9940;47.252;8.696;2023-03-16T11:06:55;4.43;;;4.22;;
19587;SDS011;9940;47.252;8.696;2023-03-16T11:09:23;4.00;;;3.80;;
19587;SDS011;9940;47.252;8.696;2023-03-16T11:11:51;4.00;;;3.80;;
19587;SDS011;9940;47.252;8.696;2023-03-16T11:14:21;5.38;;;5.18;;
19587;SDS011;9940;47.252;8.696;2023-03-16T11:16:58;9.88;;;9.48;;
19587;SDS011;9940;47.252;8.696;2023-03-16T11:19:29;8.95;;;8.45;;
19587;SDS011;9940;47.252;8.696;2023-03-16T11:27:03;16.30;;;15.50;;
19587;SDS011;9940;47.252;8.696;2023-03-16T11:29:40;20.65;;;19.65;;
19587;SDS011;9940;47.252;8.696;2023-03-16T11:32:17;18.30;;;17.40;;
19587;SDS011;9940;47.252;8.696;2023-03-16T11:34:47;20.08;;;19.08;;
19587;SDS011;9940;47.252;8.696;2023-03-16T11:42:32;11.10;;;10.60;;
19587;SDS011;9940;47.252;8.696;2023-03-16T11:50:14;11.18;;;10.68;;
19587;SDS011;9940;47.252;8.696;2023-03-16T12:21:21;148.13;;;142.05;;
19587;SDS011;9940;47.252;8.696;2023-03-16T12:23:53;156.85;;;150.60;;
19587;SDS011;9940;47.252;8.696;2023-03-16T12:26:23;130.70;;;125.13;;
19587;SDS011;9940;47.252;8.696;2023-03-16T12:28:53;149.85;;;143.85;;
19587;SDS011;9940;47.252;8.696;2023-03-16T12:31:27;131.77;;;126.35;;
19587;SDS011;9940;47.252;8.696;2023-03-16T12:34:08;106.20;;;101.65;;
19587;SDS011;9940;47.252;8.696;2023-03-16T12:39:07;246.77;;;237.85;;
19587;SDS011;9940;47.252;8.696;2023-03-16T12:49:04;174.70;;;167.77;;
19587;SDS011;9940;47.252;8.696;2023-03-16T12:51:38;222.45;;;213.88;;
19587;SDS011;9940;47.252;8.696;2023-03-16T12:54:05;174.63;;;167.68;;
19587;SDS011;9940;47.252;8.696;2023-03-16T12:56:43;168.23;;;161.50;;
19587;SDS011;9940;47.252;8.696;2023-03-16T12:59:14;198.32;;;190.70;;
19587;SDS011;9940;47.252;8.696;2023-03-16T13:01:42;181.27;;;174.02;;
19587;SDS011;9940;47.252;8.696;2023-03-16T13:04:12;182.30;;;175.20;;
19587;SDS011;9940;47.252;8.696;2023-03-16T13:06:45;163.05;;;156.57;;
19587;SDS011;9940;47.252;8.696;2023-03-16T13:09:16;210.90;;;202.88;;
19587;SDS011;9940;47.252;8.696;2023-03-16T13:11:46;222.90;;;214.43;;
19587;SDS011;9940;47.252;8.696;2023-03-16T13:14:16;183.20;;;175.98;;
19587;SDS011;9940;47.252;8.696;2023-03-16T13:17:01;167.40;;;160.77;;
19587;SDS011;9940;47.252;8.696;2023-03-16T13:19:30;134.38;;;128.85;;
19587;SDS011;9940;47.252;8.696;2023-03-16T13:22:03;148.13;;;142.10;;
19587;SDS011;9940;47.252;8.696;2023-03-16T13:24:36;161.23;;;154.65;;
19587;SDS011;9940;47.252;8.696;2023-03-16T13:27:27;157.35;;;151.02;;
19587;SDS011;9940;47.252;8.696;2023-03-16T13:29:55;139.55;;;133.82;;
19587;SDS011;9940;47.252;8.696;2023-03-16T13:32:21;134.23;;;128.60;;
19587;SDS011;9940;47.252;8.696;2023-03-16T13:34:51;96.22;;;92.10;;
19587;SDS011;9940;47.252;8.696;2023-03-16T13:37:19;79.65;;;76.18;;
19587;SDS011;9940;47.252;8.696;2023-03-16T13:39:55;100.25;;;95.95;;
19587;SDS011;9940;47.252;8.696;2023-03-16T13:42:24;83.97;;;80.28;;
19587;SDS011;9940;47.252;8.696;2023-03-16T13:44:53;81.18;;;77.65;;
19587;SDS011;9940;47.252;8.696;2023-03-16T13:47:19;51.78;;;49.50;;
19587;SDS011;9940;47.252;8.696;2023-03-16T13:49:48;40.30;;;38.40;;
19587;SDS011;9940;47.252;8.696;2023-03-16T13:54:50;18.45;;;17.50;;
19587;SDS011;9940;47.252;8.696;2023-03-16T13:57:18;13.68;;;12.85;;
19587;SDS011;9940;47.252;8.696;2023-03-16T13:59:45;15.75;;;14.95;;
19587;SDS011;9940;47.252;8.696;2023-03-16T14:02:18;10.75;;;10.35;;
19587;SDS011;9940;47.252;8.696;2023-03-16T14:04:45;16.13;;;15.43;;
19587;SDS011;9940;47.252;8.696;2023-03-16T14:07:13;9.05;;;8.65;;
19587;SDS011;9940;47.252;8.696;2023-03-16T14:09:41;9.73;;;9.30;;
19587;SDS011;9940;47.252;8.696;2023-03-16T14:12:14;7.63;;;7.32;;
19587;SDS011;9940;47.252;8.696;2023-03-16T14:14:45;7.03;;;6.72;;
19587;SDS011;9940;47.252;8.696;2023-03-16T14:17:18;7.28;;;6.88;;
19587;SDS011;9940;47.252;8.696;2023-03-16T14:22:14;4.47;;;4.28;;
19587;SDS011;9940;47.252;8.696;2023-03-16T14:24:40;3.90;;;3.70;;
19587;SDS011;9940;47.252;8.696;2023-03-16T14:29:50;3.08;;;2.90;;
19587;SDS011;9940;47.252;8.696;2023-03-16T14:32:19;3.20;;;2.88;;
19587;SDS011;9940;47.252;8.696;2023-03-16T14:34:52;3.42;;;3.22;;
19587;SDS011;9940;47.252;8.696;2023-03-16T14:37:32;2.90;;;2.70;;
19587;SDS011;9940;47.252;8.696;2023-03-16T14:40:04;3.60;;;2.45;;
19587;SDS011;9940;47.252;8.696;2023-03-16T14:42:32;2.60;;;2.25;;
19587;SDS011;9940;47.252;8.696;2023-03-16T14:45:02;2.70;;;2.50;;
19587;SDS011;9940;47.252;8.696;2023-03-16T14:47:32;4.15;;;3.95;;
19587;SDS011;9940;47.252;8.696;2023-03-16T14:50:17;2.95;;;2.75;;
19587;SDS011;9940;47.252;8.696;2023-03-16T14:52:49;3.90;;;3.70;;
19587;SDS011;9940;47.252;8.696;2023-03-16T14:55:16;3.05;;;2.80;;
19587;SDS011;9940;47.252;8.696;2023-03-16T14:57:44;2.53;;;2.42;;
19587;SDS011;9940;47.252;8.696;2023-03-16T15:00:11;3.03;;;2.83;;
19587;SDS011;9940;47.252;8.696;2023-03-16T15:02:39;2.28;;;1.88;;
19587;SDS011;9940;47.252;8.696;2023-03-16T15:05:08;2.22;;;2.00;;
19587;SDS011;9940;47.252;8.696;2023-03-16T15:07:42;2.05;;;1.95;;
19587;SDS011;9940;47.252;8.696;2023-03-16T15:15:15;3.22;;;2.78;;
19587;SDS011;9940;47.252;8.696;2023-03-16T15:17:43;2.03;;;1.92;;
19587;SDS011;9940;47.252;8.696;2023-03-16T15:20:13;1.75;;;1.65;;
19587;SDS011;9940;47.252;8.696;2023-03-16T15:22:44;1.98;;;1.88;;
19587;SDS011;9940;47.252;8.696;2023-03-16T15:25:18;1.40;;;1.30;;
19587;SDS011;9940;47.252;8.696;2023-03-16T15:27:50;1.65;;;1.38;;
19587;SDS011;9940;47.252;8.696;2023-03-16T15:30:17;1.52;;;1.42;;
19587;SDS011;9940;47.252;8.696;2023-03-16T15:32:45;2.20;;;2.10;;
19587;SDS011;9940;47.252;8.696;2023-03-16T15:35:14;1.50;;;1.40;;
19587;SDS011;9940;47.252;8.696;2023-03-16T15:37:40;1.40;;;1.30;;
19587;SDS011;9940;47.252;8.696;2023-03-16T15:40:25;1.77;;;1.65;;
19587;SDS011;9940;47.252;8.696;2023-03-16T15:42:55;1.95;;;1.73;;
19587;SDS011;9940;47.252;8.696;2023-03-16T15:45:21;1.60;;;1.50;;
19587;SDS011;9940;47.252;8.696;2023-03-16T15:47:50;1.70;;;1.60;;
19587;SDS011;9940;47.252;8.696;2023-03-16T15:50:20;1.35;;;1.30;;
19587;SDS011;9940;47.252;8.696;2023-03-16T15:52:50;2.42;;;1.60;;
19587;SDS011;9940;47.252;8.696;2023-03-16T15:55:21;1.50;;;1.40;;
19587;SDS011;9940;47.252;8.696;2023-03-16T15:57:48;2.70;;;1.48;;
19587;SDS011;9940;47.252;8.696;2023-03-16T16:00:29;4.07;;;1.90;;
19587;SDS011;9940;47.252;8.696;2023-03-16T16:05:24;1.80;;;1.60;;
19587;SDS011;9940;47.252;8.696;2023-03-16T16:07:51;1.63;;;1.50;;
19587;SDS011;9940;47.252;8.696;2023-03-16T16:10:18;2.45;;;1.70;;
19587;SDS011;9940;47.252;8.696;2023-03-16T16:12:47;2.85;;;2.10;;
19587;SDS011;9940;47.252;8.696;2023-03-16T16:17:45;1.90;;;1.52;;
19587;SDS011;9940;47.252;8.696;2023-03-16T16:20:20;1.50;;;1.40;;
19587;SDS011;9940;47.252;8.696;2023-03-16T16:22:46;2.67;;;2.15;;
19587;SDS011;9940;47.252;8.696;2023-03-16T16:25:13;1.60;;;1.50;;
19587;SDS011;9940;47.252;8.696;2023-03-16T16:27:39;1.90;;;1.58;;
19587;SDS011;9940;47.252;8.696;2023-03-16T16:30:13;1.70;;;1.60;;
19587;SDS011;9940;47.252;8.696;2023-03-16T16:32:42;4.47;;;2.40;;
19587;SDS011;9940;47.252;8.696;2023-03-16T16:35:14;3.05;;;1.75;;
19587;SDS011;9940;47.252;8.696;2023-03-16T16:37:40;2.58;;;1.63;;
19587;SDS011;9940;47.252;8.696;2023-03-16T16:40:12;2.58;;;1.50;;
19587;SDS011;9940;47.252;8.696;2023-03-16T16:42:42;2.88;;;1.50;;
19587;SDS011;9940;47.252;8.696;2023-03-16T16:45:16;1.65;;;1.55;;
19587;SDS011;9940;47.252;8.696;2023-03-16T16:47:46;2.53;;;1.35;;